Time;durP1;ratioP1;P1;durP2;ratioP2;P2;SDS_P1;SDS_P2;PMS_P1;PMS_P2;Temp;Humidity;BMP_temperature;BMP_pressure;BME280_temperature;BME280_humidity;BME280_pressure;Samples;Min_cycle;Max_cycle;Signal;HPM_P1;HPM_P2
2022/12/23 10:52:45;;;;;;;4.20;3.90;;;;;;;10.15;100.00;98046.03;5046366;27;20924;-89
2022/12/23 10:55:22;;;;;;;3.70;3.30;;;;;;;10.55;100.00;98019.28;5044947;28;38901;-89
2022/12/23 10:57:52;;;;;;;4.00;2.80;;;;;;;10.90;100.00;98020.09;5028264;28;40828;-90
2022/12/23 11:00:22;;;;;;;3.30;3.00;;;;;;;11.68;100.00;98086.38;5132365;27;41636;-89
2022/12/23 11:03:04;;;;;;;2.43;2.23;;;;;;;11.72;100.00;98044.56;5028841;28;41097;-88
2022/12/23 11:05:34;;;;;;;3.40;2.77;;;;;;;12.02;100.00;98054.53;5029460;27;39097;-88
2022/12/23 11:08:04;;;;;;;2.43;2.23;;;;;;;11.83;100.00;98000.31;5028650;28;40762;-88
2022/12/23 11:10:33;;;;;;;2.70;2.10;;;;;;;12.32;100.00;98057.34;5027537;28;43299;-89
2022/12/23 11:13:01;;;;;;;2.90;2.13;;;;;;;12.42;100.00;98076.84;5132511;27;41634;-90
2022/12/23 11:15:32;;;;;;;2.17;1.93;;;;;;;12.46;100.00;98067.69;5027966;28;38560;-89
2022/12/23 11:18:03;;;;;;;1.73;1.63;;;;;;;12.18;100.00;97985.97;5028355;28;41939;-89
2022/12/23 11:20:32;;;;;;;2.07;1.50;;;;;;;12.61;100.00;98051.44;5027553;28;41718;-89
2022/12/23 11:23:03;;;;;;;1.90;1.80;;;;;;;12.68;100.00;98041.97;5028288;28;40833;-89
2022/12/23 11:25:37;;;;;;;2.00;1.80;;;;;;;12.56;100.00;98007.50;5027564;28;38771;-88
2022/12/23 11:28:12;;;;;;;2.70;1.70;;;;;;;12.82;100.00;98041.66;5025593;28;41266;-88
2022/12/23 11:30:48;;;;;;;2.20;1.80;;;;;;;12.93;100.00;98049.56;5026437;28;44046;-90
2022/12/23 11:33:23;;;;;;;2.43;1.77;;;;;;;12.96;100.00;98046.66;5061003;27;41293;-90
2022/12/23 11:36:00;;;;;;;2.30;2.10;;;;;;;12.81;100.00;98026.69;5026046;28;40650;-89
2022/12/23 11:38:30;;;;;;;2.13;1.80;;;;;;;12.94;100.00;98043.28;5026906;28;41220;-89
2022/12/23 11:40:58;;;;;;;3.37;2.10;;;;;;;12.73;100.00;98008.75;5022399;28;42099;-88
2022/12/23 11:43:27;;;;;;;3.00;1.80;;;;;;;12.84;100.00;98015.81;5026691;28;41156;-88
2022/12/23 11:46:18;;;;;;;2.10;1.90;;;;;;;12.85;100.00;98014.84;5026245;28;38851;-89
2022/12/23 11:48:46;;;;;;;2.00;1.77;;;;;;;12.74;100.00;97998.94;5024309;28;40888;-89
2022/12/23 11:51:13;;;;;;;2.00;1.80;;;;;;;12.55;100.00;97992.53;5025398;28;41679;-88
2022/12/23 11:53:44;;;;;;;2.07;1.87;;;;;;;12.41;100.00;97982.22;5026695;28;42230;-89
2022/12/23 11:56:14;;;;;;;1.93;1.73;;;;;;;12.58;100.00;98000.25;5025122;28;39007;-89
2022/12/23 11:58:48;;;;;;;3.67;2.00;;;;;;;12.64;100.00;97998.03;5026440;28;41093;-90
2022/12/23 12:01:20;;;;;;;2.47;1.90;;;;;;;12.69;100.00;98006.47;5025953;28;42895;-89
2022/12/23 12:03:54;;;;;;;2.10;1.80;;;;;;;12.42;100.00;97965.34;5013726;28;42055;-90
2022/12/23 12:06:23;;;;;;;2.40;2.20;;;;;;;12.63;100.00;98001.66;5012769;28;41337;-89
2022/12/23 12:08:55;;;;;;;2.30;2.10;;;;;;;12.54;100.00;97988.19;5046288;28;40903;-88
2022/12/23 12:11:28;;;;;;;2.70;2.20;;;;;;;12.55;100.00;97995.19;5012141;28;41802;-89
2022/12/23 12:14:00;;;;;;;1.87;1.77;;;;;;;12.33;100.00;97963.47;5012665;28;42092;-89
2022/12/23 12:16:51;;;;;;;3.47;2.50;;;;;;;12.44;100.00;97982.00;5011270;28;38851;-88
2022/12/23 12:19:24;;;;;;;2.10;1.90;;;;;;;12.52;100.00;97990.13;5011011;28;42377;-87
2022/12/23 12:21:56;;;;;;;1.90;1.70;;;;;;;12.33;100.00;97963.47;5012586;28;42850;-87
2022/12/23 12:24:29;;;;;;;1.63;1.50;;;;;;;12.21;100.00;97941.44;5012035;28;41105;-87
2022/12/23 12:27:02;;;;;;;2.67;1.90;;;;;;;12.46;100.00;97989.81;5010793;28;39062;-86
2022/12/23 12:29:37;;;;;;;1.77;1.67;;;;;;;12.31;100.00;97975.16;5012820;28;40767;-86
2022/12/23 12:32:15;;;;;;;3.13;1.70;;;;;;;12.11;100.00;97926.41;5008763;28;44465;-87
2022/12/23 12:34:57;;;;;;;1.43;1.33;;;;;;;12.32;100.00;97951.16;5010084;28;40916;-89
2022/12/23 12:37:35;;;;;;;2.53;1.60;;;;;;;12.15;100.00;97906.59;5012633;28;38676;-86
2022/12/23 12:40:15;;;;;;;2.10;1.90;;;;;;;12.34;100.00;97933.28;5012377;28;40550;-87
2022/12/23 12:42:47;;;;;;;2.37;1.93;;;;;;;12.45;100.00;97941.19;5043388;28;41615;-89
2022/12/23 12:45:21;;;;;;;3.93;2.70;;;;;;;12.49;100.00;97934.63;5012701;28;42046;-85
2022/12/23 12:48:01;;;;;;;3.47;2.73;;;;;;;12.27;100.00;97894.94;5012364;28;38863;-86
2022/12/23 12:50:33;;;;;;;2.90;2.00;;;;;;;12.43;100.00;97921.88;5012563;28;40416;-85
2022/12/23 12:53:06;;;;;;;1.67;1.57;;;;;;;12.53;100.00;97922.78;5013156;28;43741;-88
2022/12/23 12:55:41;;;;;;;1.70;1.60;;;;;;;12.59;100.00;97919.59;5012163;28;41084;-84
2022/12/23 12:58:17;;;;;;;1.73;1.60;;;;;;;12.51;100.00;97914.09;5014257;28;39627;-89
2022/12/23 13:00:54;;;;;;;4.17;1.93;;;;;;;12.53;100.00;97906.00;5009873;28;41815;-84
2022/12/23 13:03:34;;;;;;;3.07;1.90;;;;;;;12.45;100.00;97888.09;5012369;28;42727;-85
2022/12/23 13:06:24;;;;;;;4.77;2.10;;;;;;;12.48;100.00;97893.13;5012023;28;42474;-85
2022/12/23 13:09:06;;;;;;;3.13;2.17;;;;;;;12.41;100.00;97878.69;5010940;28;41602;-87
2022/12/23 13:11:44;;;;;;;2.00;1.63;;;;;;;12.46;100.00;97878.31;5012095;28;40646;-91
2022/12/23 13:14:22;;;;;;;1.93;1.53;;;;;;;12.32;100.00;97849.44;5036891;28;43252;-90
2022/12/23 13:16:57;;;;;;;3.43;1.90;;;;;;;12.31;100.00;97856.56;5009013;28;41162;-87
2022/12/23 13:19:34;;;;;;;5.47;2.30;;;;;;;12.32;100.00;97862.69;5012917;28;39169;-82
2022/12/23 13:22:08;;;;;;;4.57;2.57;;;;;;;12.28;100.00;97870.06;5012229;28;42375;-87
2022/12/23 13:24:45;;;;;;;2.63;2.40;;;;;;;12.28;100.00;97875.38;5027724;28;42828;-84
